Time;durP1;ratioP1;P1;durP2;ratioP2;P2;SDS_P1;SDS_P2;PMS_P1;PMS_P2;Temp;Humidity;BMP_temperature;BMP_pressure;BME280_temperature;BME280_humidity;BME280_pressure;Samples;Min_cycle;Max_cycle;Signal;HPM_P1;HPM_P2
2022/11/19 00:00:25;;;;;;;15.43;9.60;;;-0.60;99.90;;;;;;4987077;28;20105;-66
2022/11/19 00:02:53;;;;;;;13.82;9.75;;;-0.60;99.90;;;;;;4990427;28;20471;-66
2022/11/19 00:05:19;;;;;;;15.23;10.07;;;-0.80;99.90;;;;;;5006502;28;20108;-65
2022/11/19 00:07:45;;;;;;;18.60;9.80;;;-0.70;99.90;;;;;;5006406;28;20053;-65
2022/11/19 00:10:11;;;;;;;16.38;10.38;;;-0.70;99.90;;;;;;5006283;28;20049;-65
2022/11/19 00:12:54;;;;;;;14.95;9.98;;;-0.70;99.90;;;;;;5005000;28;20057;-65
2022/11/19 00:15:21;;;;;;;18.17;9.40;;;-0.70;99.90;;;;;;4991927;28;20061;-65
2022/11/19 00:17:47;;;;;;;14.15;9.40;;;-0.70;99.90;;;;;;5005422;28;20660;-65
2022/11/19 00:20:13;;;;;;;16.33;9.88;;;-0.80;99.90;;;;;;4989558;28;20133;-65
2022/11/19 00:22:43;;;;;;;15.55;10.20;;;-0.70;99.90;;;;;;5005619;28;20061;-65
2022/11/19 00:25:11;;;;;;;18.85;10.63;;;-0.80;99.90;;;;;;5006921;28;20046;-65
2022/11/19 00:27:36;;;;;;;17.27;10.38;;;-0.80;99.90;;;;;;4982701;28;20053;-66
2022/11/19 00:30:03;;;;;;;16.45;9.75;;;-0.80;99.90;;;;;;5005876;28;20115;-65
2022/11/19 00:32:30;;;;;;;16.08;10.73;;;-0.90;99.90;;;;;;5001764;28;20050;-65
2022/11/19 00:34:55;;;;;;;15.73;10.25;;;-0.90;99.90;;;;;;5005287;28;20060;-64
2022/11/19 00:37:21;;;;;;;14.60;9.32;;;-0.90;99.90;;;;;;4989241;28;20041;-65
2022/11/19 00:39:47;;;;;;;17.92;10.77;;;-0.90;99.90;;;;;;4988650;28;20492;-65
2022/11/19 00:42:12;;;;;;;14.57;9.73;;;-0.90;99.90;;;;;;5000620;28;20050;-66
2022/11/19 00:44:38;;;;;;;16.05;10.13;;;-1.00;99.90;;;;;;5005373;28;20088;-65
2022/11/19 00:47:04;;;;;;;14.23;9.32;;;-0.90;99.90;;;;;;4986700;28;20046;-65
2022/11/19 00:49:30;;;;;;;17.80;10.48;;;-0.90;99.90;;;;;;5006048;28;20046;-64
2022/11/19 00:51:56;;;;;;;15.63;10.52;;;-1.00;99.90;;;;;;5005290;28;20562;-64
2022/11/19 00:54:21;;;;;;;15.40;10.25;;;-1.00;99.90;;;;;;5021791;28;20107;-66
2022/11/19 00:56:47;;;;;;;14.43;9.90;;;-1.00;99.90;;;;;;5009759;28;20573;-64
2022/11/19 00:59:13;;;;;;;17.55;10.77;;;-1.00;99.90;;;;;;5006344;28;20057;-66
2022/11/19 01:01:38;;;;;;;15.75;10.40;;;-1.00;99.90;;;;;;4988567;28;20042;-66
2022/11/19 01:04:05;;;;;;;14.25;9.80;;;-1.10;99.90;;;;;;5004036;28;20120;-65
2022/11/19 01:06:30;;;;;;;18.63;10.13;;;-1.10;99.90;;;;;;5006131;28;20041;-65
2022/11/19 01:08:59;;;;;;;17.48;10.45;;;-1.10;99.90;;;;;;5004258;28;20077;-66
2022/11/19 01:11:27;;;;;;;18.05;10.65;;;-1.10;99.90;;;;;;5020785;28;20057;-66
2022/11/19 01:13:53;;;;;;;19.30;10.27;;;-1.10;99.90;;;;;;5004314;28;20076;-65
2022/11/19 01:16:29;;;;;;;16.83;11.13;;;-1.20;99.90;;;;;;5006528;28;20049;-65
2022/11/19 01:18:55;;;;;;;16.25;10.10;;;-1.20;99.90;;;;;;5005133;28;20085;-65
2022/11/19 01:21:25;;;;;;;17.90;10.48;;;-1.10;99.90;;;;;;5005757;28;20076;-65
2022/11/19 01:23:50;;;;;;;16.20;10.57;;;-1.20;99.90;;;;;;5020360;28;20081;-64
2022/11/19 01:26:22;;;;;;;19.00;10.48;;;-1.20;99.90;;;;;;5004894;28;20050;-65
2022/11/19 01:28:47;;;;;;;16.20;10.65;;;-1.20;99.90;;;;;;5033772;28;20145;-65
2022/11/19 01:31:18;;;;;;;23.08;10.18;;;-1.20;99.90;;;;;;5002128;28;20152;-64
2022/11/19 01:33:44;;;;;;;15.38;10.30;;;-1.10;99.90;;;;;;5002574;28;20077;-64
2022/11/19 01:36:12;;;;;;;17.38;10.07;;;-1.10;99.90;;;;;;5009186;28;20132;-64
2022/11/19 01:38:38;;;;;;;;;;;-1.10;99.90;;;;;;5007644;28;20046;-64
2022/11/19 01:41:04;;;;;;;16.75;10.05;;;-1.20;99.90;;;;;;5004705;28;20410;-64
2022/11/19 01:43:43;;;;;;;15.65;10.27;;;-1.20;99.90;;;;;;5004949;28;20084;-65
2022/11/19 01:46:10;;;;;;;17.80;9.82;;;-1.20;99.90;;;;;;5004803;28;20046;-64
2022/11/19 01:48:38;;;;;;;18.27;10.52;;;-1.20;99.90;;;;;;5022920;28;20050;-64
2022/11/19 01:51:07;;;;;;;15.77;9.57;;;-1.20;99.90;;;;;;5005142;28;20046;-64
2022/11/19 01:53:34;;;;;;;16.92;10.70;;;-1.20;99.90;;;;;;5023299;28;20054;-65
2022/11/19 01:56:02;;;;;;;17.08;10.25;;;-1.30;99.90;;;;;;5006177;28;20054;-64
2022/11/19 01:58:30;;;;;;;15.43;9.80;;;-1.30;99.90;;;;;;5008111;28;20034;-64
2022/11/19 02:00:56;;;;;;;16.88;10.65;;;-1.30;99.90;;;;;;5008003;28;20085;-64
2022/11/19 02:03:22;;;;;;;18.33;11.25;;;-1.30;99.90;;;;;;5008961;28;20088;-65
2022/11/19 02:05:47;;;;;;;16.02;10.80;;;-1.30;99.90;;;;;;4992394;28;20506;-65
2022/11/19 02:08:32;;;;;;;15.88;10.02;;;-1.30;99.90;;;;;;5003722;28;20137;-65
2022/11/19 02:11:00;;;;;;;19.17;10.85;;;-1.30;99.90;;;;;;4992368;28;20059;-65
2022/11/19 02:13:49;;;;;;;21.20;10.60;;;-1.30;99.90;;;;;;4991840;28;20774;-67
2022/11/19 02:16:25;;;;;;;16.25;10.32;;;-1.30;99.90;;;;;;5003455;28;20097;-64
2022/11/19 02:19:00;;;;;;;18.85;10.02;;;-1.30;99.90;;;;;;4991920;28;20042;-65
2022/11/19 02:21:37;;;;;;;17.67;10.40;;;-1.30;99.90;;;;;;4991732;28;20463;-64
2022/11/19 02:24:20;;;;;;;17.42;10.73;;;-1.40;99.90;;;;;;5023987;28;20042;-65
2022/11/19 02:27:04;;;;;;;17.20;10.30;;;-1.40;99.90;;;;;;5007630;28;20060;-64
2022/11/19 02:29:30;;;;;;;16.42;9.68;;;-1.40;99.90;;;;;;5008063;28;20045;-65
2022/11/19 02:32:00;;;;;;;17.25;10.55;;;-1.40;99.90;;;;;;5004399;28;20499;-65
2022/11/19 02:34:41;;;;;;;18.02;10.95;;;-1.40;99.90;;;;;;5005341;28;20467;-66
2022/11/19 02:37:35;;;;;;;17.88;10.20;;;-1.40;99.90;;;;;;5008339;28;20057;-65
2022/11/19 02:40:11;;;;;;;18.98;11.38;;;-1.40;99.90;;;;;;5006337;28;20052;-65
2022/11/19 02:42:40;;;;;;;17.52;10.95;;;-1.40;99.90;;;;;;5022287;28;20859;-64
2022/11/19 02:45:14;;;;;;;17.00;10.13;;;-1.40;99.90;;;;;;5007523;28;20041;-65
2022/11/19 02:47:48;;;;;;;15.90;10.00;;;-1.40;99.90;;;;;;5006202;28;20053;-66
2022/11/19 02:50:32;;;;;;;14.60;9.48;;;-1.40;99.90;;;;;;5023363;28;20479;-65
2022/11/19 02:52:58;;;;;;;17.58;10.27;;;-1.40;99.90;;;;;;4989443;28;20052;-65
2022/11/19 02:55:24;;;;;;;18.08;10.35;;;-1.50;99.90;;;;;;5002800;28;20041;-65
2022/11/19 03:04:30;;;;;;;16.10;10.13;;;-1.50;99.90;;;;;;4971363;28;20049;-65
2022/11/19 03:07:02;;;;;;;15.43;10.05;;;-1.50;99.90;;;;;;4996244;28;20137;-65
2022/11/19 03:09:28;;;;;;;16.50;10.13;;;-1.50;99.90;;;;;;5007493;28;20044;-65
2022/11/19 03:12:19;;;;;;;17.48;9.77;;;-1.60;99.90;;;;;;5005483;28;20133;-65
2022/11/19 03:17:44;;;;;;;17.15;10.57;;;-1.70;99.90;;;;;;5003750;28;20447;-65
2022/11/19 03:20:27;;;;;;;14.40;9.82;;;-1.70;99.90;;;;;;5008728;28;20148;-65
2022/11/19 03:23:09;;;;;;;16.25;10.50;;;-1.70;99.90;;;;;;5007228;28;20054;-64
2022/11/19 03:25:40;;;;;;;17.35;9.27;;;-1.70;99.90;;;;;;5003274;28;20057;-64
2022/11/19 03:28:14;;;;;;;17.77;9.93;;;-1.70;99.90;;;;;;5007164;28;20049;-65
2022/11/19 03:30:41;;;;;;;15.45;9.45;;;-1.80;99.90;;;;;;4990402;28;20112;-64
2022/11/19 03:33:20;;;;;;;17.05;9.90;;;-1.80;99.90;;;;;;5006192;28;20148;-64
2022/11/19 03:35:48;;;;;;;16.42;10.55;;;-1.80;99.90;;;;;;5006025;28;20100;-64
2022/11/19 03:38:16;;;;;;;16.20;9.38;;;-1.80;99.90;;;;;;5004423;28;20532;-64
2022/11/19 03:40:42;;;;;;;16.20;10.00;;;-1.80;99.90;;;;;;5007062;28;20050;-65
2022/11/19 03:43:08;;;;;;;16.08;9.82;;;-1.80;99.90;;;;;;5005173;28;20053;-64
2022/11/19 03:45:38;;;;;;;15.18;9.60;;;-1.80;99.90;;;;;;4990191;28;20045;-65
2022/11/19 03:48:04;;;;;;;14.63;9.38;;;-1.90;99.90;;;;;;4989184;28;20050;-66
2022/11/19 03:50:45;;;;;;;17.67;9.45;;;-1.80;99.90;;;;;;4991184;28;20152;-65
2022/11/19 03:53:11;;;;;;;18.40;9.60;;;-1.80;99.90;;;;;;5007146;28;20376;-64
2022/11/19 03:55:55;;;;;;;15.43;9.27;;;-1.80;99.90;;;;;;5006483;28;20042;-66
2022/11/19 03:58:23;;;;;;;14.13;9.75;;;-1.90;99.90;;;;;;4999466;28;20046;-66
2022/11/19 04:00:48;;;;;;;;;;;-1.90;99.90;;;;;;5007358;28;20667;-66
2022/11/19 04:03:15;;;;;;;14.43;9.75;;;-1.90;99.90;;;;;;4988787;28;19920;-64
2022/11/19 04:05:41;;;;;;;16.67;9.73;;;-1.80;99.90;;;;;;5006945;28;20088;-65
2022/11/19 04:08:08;;;;;;;14.98;9.27;;;-1.90;99.90;;;;;;5006300;28;20050;-64
2022/11/19 04:10:35;;;;;;;14.38;9.48;;;-1.90;99.90;;;;;;5003627;28;20128;-65
2022/11/19 04:13:01;;;;;;;15.00;9.45;;;-2.00;99.90;;;;;;4979664;28;20054;-65
2022/11/19 04:15:27;;;;;;;13.48;8.80;;;-1.90;99.90;;;;;;4988816;28;20111;-65
2022/11/19 04:17:53;;;;;;;15.85;9.93;;;-2.00;99.90;;;;;;4989267;28;20045;-65
2022/11/19 04:20:20;;;;;;;17.38;9.82;;;-2.00;99.90;;;;;;4999946;28;20157;-65
2022/11/19 04:22:45;;;;;;;14.23;9.98;;;-2.10;99.90;;;;;;4989360;28;20121;-65
2022/11/19 04:25:11;;;;;;;17.08;9.98;;;-2.10;99.90;;;;;;5006181;28;20599;-65
2022/11/19 04:27:38;;;;;;;15.15;9.68;;;-2.10;99.90;;;;;;5003351;28;20129;-65
2022/11/19 04:30:04;;;;;;;17.48;10.10;;;-2.00;99.90;;;;;;4989330;28;20149;-65
2022/11/19 04:32:30;;;;;;;15.63;9.85;;;-2.20;99.90;;;;;;5007132;28;20042;-65
2022/11/19 04:34:57;;;;;;;16.35;9.65;;;-2.20;99.90;;;;;;5011677;28;20116;-66
2022/11/19 04:37:23;;;;;;;16.33;9.73;;;-2.20;99.90;;;;;;5005923;28;20072;-65
2022/11/19 04:39:49;;;;;;;16.67;9.45;;;-2.20;99.90;;;;;;5005844;28;20069;-64
2022/11/19 04:42:14;;;;;;;17.15;9.68;;;-2.20;99.90;;;;;;5006084;28;20121;-64
2022/11/19 04:44:40;;;;;;;16.50;9.60;;;-2.30;99.90;;;;;;5004840;28;20144;-65
2022/11/19 04:47:06;;;;;;;14.27;9.02;;;-2.20;99.90;;;;;;4972384;28;20555;-64
2022/11/19 04:49:31;;;;;;;16.05;10.13;;;-2.20;99.90;;;;;;5006098;28;20352;-65
2022/11/19 04:51:57;;;;;;;15.15;9.18;;;-2.20;99.90;;;;;;4986696;28;20419;-65
2022/11/19 04:54:23;;;;;;;17.08;9.88;;;-2.30;99.90;;;;;;4988086;28;20057;-64
2022/11/19 04:56:48;;;;;;;15.65;9.52;;;-2.30;99.90;;;;;;4987028;28;20475;-65
2022/11/19 04:59:14;;;;;;;14.15;9.00;;;-2.30;99.90;;;;;;5005858;28;20060;-66
2022/11/19 05:01:40;;;;;;;15.88;9.20;;;-2.30;99.90;;;;;;5005011;28;20162;-65
2022/11/19 05:04:06;;;;;;;14.93;9.95;;;-2.30;99.90;;;;;;5001081;28;20650;-65
2022/11/19 05:06:32;;;;;;;17.88;10.07;;;-2.40;99.90;;;;;;5001084;28;20064;-64
2022/11/19 05:08:58;;;;;;;15.93;9.23;;;-2.40;99.90;;;;;;5002825;28;20275;-64
2022/11/19 05:11:23;;;;;;;16.23;9.55;;;-2.40;99.90;;;;;;5004192;28;20405;-65
2022/11/19 05:13:49;;;;;;;16.10;9.35;;;-2.50;99.90;;;;;;5018948;28;20045;-64
2022/11/19 05:16:15;;;;;;;14.40;9.75;;;-2.50;99.90;;;;;;5005755;28;20054;-65
2022/11/19 05:18:40;;;;;;;15.93;9.63;;;-2.50;99.90;;;;;;5003968;28;20053;-65
2022/11/19 05:21:06;;;;;;;16.85;10.30;;;-2.50;99.90;;;;;;5002215;28;20538;-64
2022/11/19 05:23:32;;;;;;;16.25;9.18;;;-2.50;99.90;;;;;;5004831;28;20046;-66
2022/11/19 05:25:58;;;;;;;16.02;10.52;;;-2.50;99.90;;;;;;5005652;28;20067;-65
2022/11/19 05:28:23;;;;;;;16.23;9.57;;;-2.50;99.90;;;;;;5003192;28;20108;-65
2022/11/19 05:30:53;;;;;;;20.20;10.32;;;-2.50;99.90;;;;;;5004394;28;20077;-65
2022/11/19 05:33:18;;;;;;;15.70;9.55;;;-2.50;99.90;;;;;;4985843;28;20376;-65
2022/11/19 05:35:44;;;;;;;16.30;9.75;;;-2.50;99.90;;;;;;5003530;28;20056;-65
2022/11/19 05:38:10;;;;;;;18.73;10.60;;;-2.50;99.90;;;;;;5005134;28;20048;-66
2022/11/19 05:40:35;;;;;;;15.07;9.70;;;-2.50;99.90;;;;;;5001630;28;20053;-65
2022/11/19 05:43:06;;;;;;;15.45;9.73;;;-2.60;99.90;;;;;;5001464;28;20472;-65
2022/11/19 05:45:32;;;;;;;20.70;9.93;;;-2.60;99.90;;;;;;4988686;28;20056;-65
2022/11/19 05:47:58;;;;;;;17.10;10.05;;;-2.60;99.90;;;;;;5004789;28;20041;-65
2022/11/19 05:50:23;;;;;;;14.75;9.60;;;-2.60;99.90;;;;;;5000465;28;20062;-65
2022/11/19 05:52:49;;;;;;;18.60;10.13;;;-2.60;99.90;;;;;;5029010;28;20060;-65
2022/11/19 05:55:15;;;;;;;24.33;10.73;;;-2.60;99.90;;;;;;5004095;28;20046;-65
2022/11/19 05:57:42;;;;;;;15.52;9.32;;;-2.60;99.90;;;;;;4985981;28;20096;-65
2022/11/19 06:00:09;;;;;;;16.17;9.45;;;-2.60;99.90;;;;;;4988031;28;20070;-64
2022/11/19 06:02:35;;;;;;;17.13;10.20;;;-2.60;99.90;;;;;;5004498;28;20042;-65
2022/11/19 06:05:02;;;;;;;19.52;10.70;;;-2.70;99.90;;;;;;5005659;28;20138;-65
2022/11/19 06:07:28;;;;;;;15.68;9.35;;;-2.70;99.90;;;;;;5016160;28;20099;-65
2022/11/19 06:09:53;;;;;;;16.30;9.48;;;-2.70;99.90;;;;;;5003658;28;20041;-65
2022/11/19 06:12:19;;;;;;;16.73;9.68;;;-2.80;99.90;;;;;;4987485;28;20049;-64
2022/11/19 06:14:45;;;;;;;16.95;10.38;;;-2.80;99.90;;;;;;5004917;28;20070;-64
2022/11/19 06:17:10;;;;;;;15.38;9.43;;;-2.80;99.90;;;;;;5000858;28;20061;-64
2022/11/19 06:19:36;;;;;;;16.92;10.23;;;-2.80;99.90;;;;;;4987648;28;20049;-64
2022/11/19 06:22:02;;;;;;;16.38;9.80;;;-2.80;99.90;;;;;;5005090;28;20524;-65
2022/11/19 06:24:28;;;;;;;15.80;10.02;;;-2.80;99.90;;;;;;4987371;28;20260;-64
2022/11/19 06:26:57;;;;;;;18.05;9.90;;;-2.80;99.90;;;;;;4984305;28;20121;-64
2022/11/19 06:29:23;;;;;;;17.30;9.88;;;-2.80;99.90;;;;;;5010281;28;20054;-65
2022/11/19 06:31:49;;;;;;;15.55;10.32;;;-2.80;99.90;;;;;;5007464;28;20054;-65
2022/11/19 06:34:14;;;;;;;18.10;10.18;;;-2.80;99.90;;;;;;5005328;28;20462;-65
2022/11/19 06:36:40;;;;;;;15.35;9.75;;;-2.80;99.90;;;;;;5007597;28;20053;-65
2022/11/19 06:39:06;;;;;;;19.55;11.25;;;-2.70;99.90;;;;;;5007691;28;20057;-66
2022/11/19 06:41:32;;;;;;;18.92;11.32;;;-2.80;99.90;;;;;;5013870;28;20160;-65
2022/11/19 06:43:58;;;;;;;18.27;11.05;;;-2.80;99.90;;;;;;5024969;28;20044;-66
2022/11/19 06:46:23;;;;;;;18.80;11.23;;;-2.80;99.90;;;;;;5011705;28;20141;-66
2022/11/19 06:48:49;;;;;;;18.10;11.15;;;-2.80;99.90;;;;;;4994723;28;20132;-65
2022/11/19 06:51:15;;;;;;;22.50;11.75;;;-2.80;99.90;;;;;;5010188;28;20108;-65
2022/11/19 06:53:41;;;;;;;19.90;11.70;;;-2.80;99.90;;;;;;5009854;28;20049;-65
2022/11/19 06:56:07;;;;;;;19.73;11.38;;;-2.80;99.90;;;;;;5009411;28;20050;-65
2022/11/19 06:58:32;;;;;;;19.73;11.45;;;-2.70;99.90;;;;;;5007838;28;20045;-65
2022/11/19 07:00:58;;;;;;;16.17;9.98;;;-2.70;99.90;;;;;;5009926;28;20092;-66
2022/11/19 07:03:25;;;;;;;19.13;11.43;;;-2.80;99.90;;;;;;5010883;28;20125;-65
2022/11/19 07:05:56;;;;;;;18.27;10.43;;;-2.80;99.90;;;;;;5009088;28;20065;-64
2022/11/19 07:08:23;;;;;;;18.05;10.93;;;-2.80;99.90;;;;;;4993550;28;20046;-65
2022/11/19 07:10:48;;;;;;;21.40;11.75;;;-2.80;99.90;;;;;;4976549;28;20124;-66
2022/11/19 07:13:14;;;;;;;21.70;11.07;;;-2.90;99.90;;;;;;4994243;28;20046;-66
2022/11/19 07:15:40;;;;;;;18.52;10.48;;;-2.90;99.90;;;;;;5011426;28;20144;-65
2022/11/19 07:18:06;;;;;;;20.48;11.70;;;-2.80;99.90;;;;;;5009462;28;20081;-64
2022/11/19 07:20:31;;;;;;;20.73;11.40;;;-2.80;99.90;;;;;;4991052;28;20038;-64
2022/11/19 07:22:57;;;;;;;20.02;11.10;;;-2.80;99.90;;;;;;5039415;28;20046;-64
2022/11/19 07:25:23;;;;;;;18.38;11.00;;;-2.80;99.90;;;;;;5010533;28;20054;-64
2022/11/19 07:27:49;;;;;;;20.10;11.35;;;-2.70;99.90;;;;;;4994326;28;20054;-64
2022/11/19 07:30:15;;;;;;;19.90;11.27;;;-2.70;99.90;;;;;;5003874;28;20780;-64
2022/11/19 07:32:41;;;;;;;21.08;11.38;;;-2.70;99.90;;;;;;5010223;28;20523;-64
2022/11/19 07:35:08;;;;;;;19.73;11.23;;;-2.80;99.90;;;;;;5007231;28;20046;-64
2022/11/19 07:37:34;;;;;;;21.63;12.00;;;-2.70;99.90;;;;;;5010674;28;20049;-64
2022/11/19 07:40:01;;;;;;;20.02;11.90;;;-2.70;99.90;;;;;;4990923;28;20046;-64
2022/11/19 07:45:11;;;;;;;22.02;11.82;;;-2.70;99.90;;;;;;5004043;28;20049;-63
2022/11/19 07:47:36;;;;;;;23.15;11.65;;;-2.70;99.90;;;;;;4993377;28;20049;-63
2022/11/19 07:50:03;;;;;;;22.42;11.15;;;-2.70;99.90;;;;;;5008257;28;20057;-63
2022/11/19 07:52:29;;;;;;;18.55;11.38;;;-2.80;99.90;;;;;;5004811;28;20042;-63
2022/11/19 07:54:55;;;;;;;19.02;11.07;;;-2.70;99.90;;;;;;5010232;28;20064;-63
2022/11/19 07:57:21;;;;;;;19.73;11.63;;;-2.70;99.90;;;;;;5009697;28;20487;-64
2022/11/19 07:59:46;;;;;;;18.70;11.20;;;-2.60;99.90;;;;;;4991104;28;20050;-64
2022/11/19 08:02:12;;;;;;;24.38;12.38;;;-2.60;99.90;;;;;;4993405;28;20054;-63
2022/11/19 08:04:38;;;;;;;18.85;11.07;;;-2.50;99.90;;;;;;5009706;28;20049;-63
2022/11/19 08:07:04;;;;;;;21.45;12.85;;;-2.50;99.90;;;;;;5008584;28;20046;-63
2022/11/19 08:09:29;;;;;;;22.40;12.38;;;-2.40;99.90;;;;;;5009805;28;20128;-63
2022/11/19 08:11:55;;;;;;;22.20;12.07;;;-2.40;99.90;;;;;;5010017;28;20049;-63
2022/11/19 08:14:21;;;;;;;21.60;11.80;;;-2.40;99.90;;;;;;5008757;28;20074;-64
2022/11/19 08:19:31;;;;;;;19.58;12.02;;;-2.30;99.90;;;;;;5008477;28;20041;-64
2022/11/19 08:21:56;;;;;;;22.70;13.15;;;-2.20;99.90;;;;;;5005285;28;20372;-63
2022/11/19 08:24:22;;;;;;;22.10;12.80;;;-2.20;99.90;;;;;;4993398;28;20080;-64
2022/11/19 08:26:48;;;;;;;23.77;13.35;;;-2.10;99.90;;;;;;5006476;28;20099;-64
2022/11/19 08:29:15;;;;;;;23.45;13.20;;;-2.10;99.90;;;;;;5025321;28;20387;-65
2022/11/19 08:31:41;;;;;;;22.77;13.68;;;-2.10;99.90;;;;;;5024642;28;20060;-64
2022/11/19 08:34:07;;;;;;;22.50;13.85;;;-2.10;99.90;;;;;;5009193;28;20570;-64
2022/11/19 08:36:33;;;;;;;19.98;13.18;;;-2.00;99.90;;;;;;5002340;28;20049;-64
2022/11/19 08:39:02;;;;;;;21.90;13.65;;;-2.00;99.90;;;;;;5008473;28;20042;-64
2022/11/19 08:44:13;;;;;;;21.80;12.98;;;-1.90;99.90;;;;;;5008709;28;20115;-66
2022/11/19 08:46:39;;;;;;;25.52;15.43;;;-1.80;99.90;;;;;;5004959;28;20047;-66
2022/11/19 08:49:05;;;;;;;21.67;13.30;;;-1.80;99.90;;;;;;5005689;28;20106;-65
2022/11/19 08:51:31;;;;;;;21.02;13.18;;;-1.70;99.90;;;;;;5008557;28;20156;-65
2022/11/19 08:53:56;;;;;;;21.60;13.43;;;-1.70;99.90;;;;;;5007909;28;20518;-65
2022/11/19 08:56:22;;;;;;;21.02;13.63;;;-1.60;99.90;;;;;;5007894;28;20073;-66
2022/11/19 08:58:48;;;;;;;20.92;12.38;;;-1.50;99.90;;;;;;5024914;28;20038;-65
2022/11/19 09:01:15;;;;;;;20.70;12.43;;;-1.50;99.90;;;;;;5008660;28;20132;-67
2022/11/19 09:03:40;;;;;;;20.65;13.82;;;-1.40;99.90;;;;;;4992814;28;20451;-67
2022/11/19 09:06:06;;;;;;;21.67;13.68;;;-1.40;99.90;;;;;;4990599;28;20495;-65
2022/11/19 09:08:32;;;;;;;23.70;13.88;;;-1.30;99.90;;;;;;5009172;28;20049;-66
2022/11/19 09:10:58;;;;;;;24.33;14.25;;;-1.20;99.90;;;;;;4992702;28;20352;-65
2022/11/19 09:13:23;;;;;;;22.63;13.68;;;-1.10;99.90;;;;;;5007427;28;20081;-65
2022/11/19 09:15:50;;;;;;;22.60;13.63;;;-1.00;99.90;;;;;;4992337;28;20046;-65
2022/11/19 09:18:16;;;;;;;23.73;13.70;;;-0.90;99.90;;;;;;4991262;28;20054;-66
2022/11/19 09:20:42;;;;;;;21.10;12.73;;;-0.80;99.90;;;;;;4991993;28;20052;-65
2022/11/19 09:23:08;;;;;;;18.98;10.77;;;-0.70;99.90;;;;;;4991654;28;20050;-65
2022/11/19 09:25:34;;;;;;;22.52;11.45;;;-0.60;99.90;;;;;;5022574;28;20448;-65
2022/11/19 09:28:00;;;;;;;17.60;9.85;;;-0.40;99.90;;;;;;5009143;28;20771;-65
2022/11/19 09:30:26;;;;;;;16.50;10.20;;;-0.40;99.90;;;;;;4975213;28;20053;-66
2022/11/19 09:32:51;;;;;;;19.10;10.77;;;-0.30;99.90;;;;;;4992055;28;20049;-66
2022/11/19 09:35:17;;;;;;;15.80;9.55;;;-0.20;99.90;;;;;;4991876;28;20132;-67
2022/11/19 09:37:43;;;;;;;16.70;9.13;;;-0.20;99.90;;;;;;4991901;28;20046;-68
2022/11/19 09:40:20;;;;;;;16.30;9.68;;;0.10;99.90;;;;;;5007413;28;20105;-65
2022/11/19 09:43:04;;;;;;;15.50;9.90;;;0.10;99.90;;;;;;5003002;28;20053;-67
2022/11/19 09:45:49;;;;;;;18.27;11.43;;;0.40;99.90;;;;;;5008517;28;20061;-65
2022/11/19 09:48:44;;;;;;;18.20;9.93;;;0.60;99.90;;;;;;5008282;28;20042;-67
2022/11/19 09:51:14;;;;;;;17.98;9.88;;;0.90;99.90;;;;;;5001316;28;20073;-65
2022/11/19 09:53:50;;;;;;;16.70;9.55;;;1.00;99.90;;;;;;4991900;28;20137;-64
2022/11/19 09:56:21;;;;;;;14.38;8.90;;;1.10;99.90;;;;;;4991981;28;20064;-65
2022/11/19 09:58:47;;;;;;;16.58;9.55;;;1.30;99.90;;;;;;4991163;28;20049;-65
2022/11/19 10:01:17;;;;;;;15.50;8.35;;;1.30;99.90;;;;;;4991736;28;20046;-65
2022/11/19 10:03:47;;;;;;;14.55;8.95;;;1.50;99.90;;;;;;5007081;28;20084;-65
2022/11/19 10:06:29;;;;;;;13.60;8.70;;;1.70;99.90;;;;;;4977931;28;20049;-65
2022/11/19 10:09:20;;;;;;;13.52;8.10;;;1.90;99.90;;;;;;5011783;28;20077;-65
2022/11/19 10:12:10;;;;;;;14.27;8.95;;;2.10;99.90;;;;;;5021926;28;20046;-66
2022/11/19 10:14:42;;;;;;;13.98;8.55;;;2.30;99.90;;;;;;5010246;28;20132;-66
2022/11/19 10:17:20;;;;;;;13.82;8.18;;;2.60;99.90;;;;;;5012604;28;20499;-65
2022/11/19 10:20:08;;;;;;;13.35;7.60;;;2.70;99.90;;;;;;4995127;28;20049;-64
2022/11/19 10:22:55;;;;;;;14.10;8.38;;;2.80;99.60;;;;;;5010351;28;20108;-65
2022/11/19 10:25:22;;;;;;;11.57;7.60;;;3.10;99.90;;;;;;4997558;28;20049;-65
2022/11/19 10:27:56;;;;;;;12.05;7.68;;;3.40;99.90;;;;;;4979432;28;20108;-69
2022/11/19 10:30:23;;;;;;;9.20;6.25;;;3.80;99.90;;;;;;5011546;28;20046;-65
2022/11/19 10:33:08;;;;;;;9.00;5.97;;;4.20;99.20;;;;;;5010355;28;20471;-65
2022/11/19 10:35:47;;;;;;;9.95;7.13;;;4.60;99.20;;;;;;5015632;28;20491;-65
2022/11/19 10:38:34;;;;;;;9.38;6.55;;;5.20;97.90;;;;;;4992326;28;20580;-65
2022/11/19 10:41:12;;;;;;;9.40;6.15;;;5.70;96.90;;;;;;5028431;28;20046;-67
2022/11/19 10:43:59;;;;;;;9.68;6.45;;;6.20;94.80;;;;;;5008550;28;20043;-67
2022/11/19 10:46:25;;;;;;;8.85;7.10;;;6.70;94.60;;;;;;5013692;28;20180;-66
2022/11/19 10:48:56;;;;;;;9.48;6.38;;;7.10;93.40;;;;;;5011074;28;20053;-68
2022/11/19 10:51:54;;;;;;;8.43;6.47;;;7.50;93.50;;;;;;5011432;28;20071;-66
2022/11/19 10:54:22;;;;;;;8.40;6.50;;;7.90;92.00;;;;;;4985949;28;20149;-67
2022/11/19 10:56:48;;;;;;;8.10;6.32;;;8.20;91.50;;;;;;4994191;28;20503;-68
2022/11/19 10:59:21;;;;;;;9.75;6.10;;;8.50;90.00;;;;;;4994457;28;20121;-66
2022/11/19 11:01:48;;;;;;;5.97;4.90;;;8.60;81.60;;;;;;4992831;28;20091;-67
2022/11/19 11:04:19;;;;;;;6.45;4.82;;;8.60;81.80;;;;;;4994471;28;20192;-67
2022/11/19 11:07:16;;;;;;;7.13;5.32;;;8.70;82.70;;;;;;4990429;28;20123;-67
2022/11/19 11:09:42;;;;;;;7.15;5.20;;;8.90;82.30;;;;;;5009533;28;20046;-68
2022/11/19 11:15:22;;;;;;;9.73;7.32;;;9.30;79.50;;;;;;5010396;28;20136;-67
2022/11/19 11:17:51;;;;;;;9.48;6.55;;;9.20;77.10;;;;;;4994090;28;20042;-66
2022/11/19 11:20:18;;;;;;;7.90;6.18;;;9.50;78.40;;;;;;4992852;28;20043;-67
2022/11/19 11:22:48;;;;;;;11.93;6.75;;;9.70;76.10;;;;;;4994263;28;20092;-68
2022/11/19 11:25:27;;;;;;;10.63;6.40;;;10.00;78.70;;;;;;5010096;28;20053;-68
2022/11/19 11:28:22;;;;;;;9.45;6.60;;;10.00;78.00;;;;;;5002932;28;20407;-68
2022/11/19 11:30:57;;;;;;;9.85;6.95;;;9.70;77.10;;;;;;4999306;28;20054;-68
2022/11/19 11:33:23;;;;;;;9.57;6.38;;;9.70;75.20;;;;;;5009369;28;20046;-68
2022/11/19 11:35:49;;;;;;;9.80;6.88;;;9.70;73.70;;;;;;5007242;28;20132;-67
2022/11/19 11:38:14;;;;;;;11.00;7.00;;;9.70;76.20;;;;;;5039605;28;20054;-67
2022/11/19 11:40:40;;;;;;;9.15;6.60;;;9.70;74.00;;;;;;4978571;28;20046;-66
2022/11/19 11:43:13;;;;;;;11.20;6.75;;;9.60;73.70;;;;;;4976475;28;20495;-66
2022/11/19 11:45:39;;;;;;;10.00;7.55;;;9.60;70.70;;;;;;5009717;28;20057;-65
2022/11/19 11:48:15;;;;;;;11.50;7.38;;;9.40;74.60;;;;;;5008686;28;20050;-65
2022/11/19 11:50:43;;;;;;;10.15;7.40;;;9.00;73.60;;;;;;4991356;28;20136;-66
2022/11/19 11:53:09;;;;;;;12.10;6.90;;;9.00;74.30;;;;;;5009591;28;20109;-66
2022/11/19 11:55:37;;;;;;;9.68;6.72;;;9.00;74.10;;;;;;4990350;28;20054;-66
2022/11/19 11:58:24;;;;;;;9.40;6.50;;;9.20;72.80;;;;;;5022563;28;20703;-68
2022/11/19 12:00:51;;;;;;;8.57;6.18;;;8.90;71.20;;;;;;4991906;28;20037;-67
2022/11/19 12:03:18;;;;;;;11.55;7.70;;;8.80;69.50;;;;;;5026929;28;20049;-66
2022/11/19 12:06:16;;;;;;;10.18;6.63;;;8.60;72.10;;;;;;5010903;28;20466;-66
2022/11/19 12:09:12;;;;;;;9.27;6.57;;;8.30;70.80;;;;;;4976984;28;20053;-67
2022/11/19 12:11:53;;;;;;;11.27;6.97;;;8.50;71.50;;;;;;5010883;28;20149;-66
2022/11/19 12:14:41;;;;;;;9.73;7.20;;;8.60;70.50;;;;;;5001878;28;20042;-66
2022/11/19 12:17:26;;;;;;;12.35;6.75;;;8.90;70.00;;;;;;4963777;28;20068;-66
2022/11/19 12:20:13;;;;;;;8.50;5.90;;;8.80;68.10;;;;;;5009788;28;20048;-66
2022/11/19 12:22:39;;;;;;;9.10;6.20;;;8.70;68.30;;;;;;5008708;28;20048;-67
2022/11/19 12:25:24;;;;;;;7.68;6.13;;;8.90;66.80;;;;;;5005238;28;20049;-67
2022/11/19 12:27:58;;;;;;;7.85;5.95;;;8.70;67.50;;;;;;4992628;28;20555;-66
2022/11/19 12:30:29;;;;;;;11.07;6.13;;;8.80;66.70;;;;;;5019121;28;20065;-68
2022/11/19 12:33:21;;;;;;;8.95;6.20;;;8.90;68.10;;;;;;5008429;28;20069;-68
2022/11/19 12:35:51;;;;;;;8.38;5.93;;;8.60;65.70;;;;;;5027774;28;20072;-67
2022/11/19 12:38:26;;;;;;;7.90;5.30;;;8.60;65.30;;;;;;5008494;28;20115;-67
2022/11/19 12:41:04;;;;;;;11.65;6.07;;;8.60;67.40;;;;;;4992723;28;20103;-67
2022/11/19 12:44:00;;;;;;;8.60;6.15;;;8.50;67.20;;;;;;5009911;28;20135;-66
2022/11/19 12:46:55;;;;;;;10.07;5.22;;;8.40;67.70;;;;;;5004976;28;20050;-66
2022/11/19 12:49:34;;;;;;;7.82;5.22;;;8.00;68.30;;;;;;4989226;28;20388;-68
2022/11/19 12:52:15;;;;;;;10.18;5.50;;;7.60;67.30;;;;;;4989118;28;20056;-67
2022/11/19 12:55:05;;;;;;;9.57;4.90;;;7.40;68.90;;;;;;5002251;28;20061;-68
2022/11/19 12:57:36;;;;;;;8.40;5.40;;;7.60;69.00;;;;;;5008746;28;20042;-68
2022/11/19 13:00:21;;;;;;;8.07;5.65;;;7.40;69.60;;;;;;5008383;28;20440;-68
2022/11/19 13:03:02;;;;;;;9.68;5.80;;;7.30;70.40;;;;;;4975932;28;20337;-68
2022/11/19 13:05:34;;;;;;;8.68;5.93;;;7.00;72.60;;;;;;5007638;28;20042;-68
2022/11/19 13:08:14;;;;;;;9.75;6.00;;;7.00;74.00;;;;;;4992448;28;20502;-67
2022/11/19 13:10:54;;;;;;;8.68;5.97;;;6.80;74.30;;;;;;5009191;28;20057;-67